sensor_id;sensor_type;location;lat;lon;timestamp;P1;durP1;ratioP1;P2;durP2;ratioP2
49366;SDS011;35245;52.026;8.540;2023-01-15T00:00:29;5.05;;;2.65;;
49366;SDS011;35245;52.026;8.540;2023-01-15T00:02:56;8.77;;;2.67;;
49366;SDS011;35245;52.026;8.540;2023-01-15T00:05:23;11.85;;;2.90;;
49366;SDS011;35245;52.026;8.540;2023-01-15T00:07:52;12.23;;;3.35;;
49366;SDS011;35245;52.026;8.540;2023-01-15T00:10:20;10.45;;;3.00;;
49366;SDS011;35245;52.026;8.540;2023-01-15T00:12:47;14.00;;;2.83;;
49366;SDS011;35245;52.026;8.540;2023-01-15T00:15:15;7.20;;;2.00;;
49366;SDS011;35245;52.026;8.540;2023-01-15T00:17:43;10.45;;;1.80;;
49366;SDS011;35245;52.026;8.540;2023-01-15T00:20:10;10.43;;;1.95;;
49366;SDS011;35245;52.026;8.540;2023-01-15T00:22:38;14.93;;;3.22;;
49366;SDS011;35245;52.026;8.540;2023-01-15T00:25:08;11.45;;;2.58;;
49366;SDS011;35245;52.026;8.540;2023-01-15T00:27:53;12.65;;;3.22;;
49366;SDS011;35245;52.026;8.540;2023-01-15T00:30:20;7.82;;;2.33;;
49366;SDS011;35245;52.026;8.540;2023-01-15T00:32:49;5.50;;;2.03;;
49366;SDS011;35245;52.026;8.540;2023-01-15T00:35:17;8.52;;;2.80;;
49366;SDS011;35245;52.026;8.540;2023-01-15T00:37:47;6.07;;;1.65;;
49366;SDS011;35245;52.026;8.540;2023-01-15T00:40:17;5.95;;;1.90;;
49366;SDS011;35245;52.026;8.540;2023-01-15T00:42:45;7.15;;;2.00;;
49366;SDS011;35245;52.026;8.540;2023-01-15T00:45:13;10.50;;;3.63;;
49366;SDS011;35245;52.026;8.540;2023-01-15T00:47:40;7.90;;;2.78;;
49366;SDS011;35245;52.026;8.540;2023-01-15T00:50:10;9.52;;;1.55;;
49366;SDS011;35245;52.026;8.540;2023-01-15T00:52:40;5.05;;;2.15;;
49366;SDS011;35245;52.026;8.540;2023-01-15T00:55:08;5.63;;;1.90;;
49366;SDS011;35245;52.026;8.540;2023-01-15T00:57:36;4.85;;;2.38;;
49366;SDS011;35245;52.026;8.540;2023-01-15T01:00:04;3.97;;;2.17;;
49366;SDS011;35245;52.026;8.540;2023-01-15T01:02:33;7.20;;;1.35;;
49366;SDS011;35245;52.026;8.540;2023-01-15T01:05:00;2.10;;;0.98;;
49366;SDS011;35245;52.026;8.540;2023-01-15T01:07:27;2.22;;;1.00;;
49366;SDS011;35245;52.026;8.540;2023-01-15T01:09:54;3.00;;;1.05;;
49366;SDS011;35245;52.026;8.540;2023-01-15T01:12:22;7.85;;;1.60;;
49366;SDS011;35245;52.026;8.540;2023-01-15T01:14:51;4.75;;;1.48;;
49366;SDS011;35245;52.026;8.540;2023-01-15T01:17:19;2.22;;;1.17;;
49366;SDS011;35245;52.026;8.540;2023-01-15T01:19:46;2.53;;;1.10;;
49366;SDS011;35245;52.026;8.540;2023-01-15T01:22:13;3.20;;;0.98;;
49366;SDS011;35245;52.026;8.540;2023-01-15T01:24:41;5.97;;;1.40;;
49366;SDS011;35245;52.026;8.540;2023-01-15T01:27:08;4.50;;;1.40;;
49366;SDS011;35245;52.026;8.540;2023-01-15T01:29:35;3.85;;;0.88;;
49366;SDS011;35245;52.026;8.540;2023-01-15T01:32:04;4.50;;;0.88;;
49366;SDS011;35245;52.026;8.540;2023-01-15T01:34:31;4.20;;;1.80;;
49366;SDS011;35245;52.026;8.540;2023-01-15T01:36:59;3.28;;;1.15;;
49366;SDS011;35245;52.026;8.540;2023-01-15T01:39:26;7.72;;;1.50;;
49366;SDS011;35245;52.026;8.540;2023-01-15T01:41:53;4.82;;;1.10;;
49366;SDS011;35245;52.026;8.540;2023-01-15T01:47:34;4.97;;;1.30;;
49366;SDS011;35245;52.026;8.540;2023-01-15T01:50:03;4.50;;;1.20;;
49366;SDS011;35245;52.026;8.540;2023-01-15T01:52:36;3.35;;;1.40;;
49366;SDS011;35245;52.026;8.540;2023-01-15T01:55:09;3.78;;;1.15;;
49366;SDS011;35245;52.026;8.540;2023-01-15T01:57:39;5.82;;;1.90;;
49366;SDS011;35245;52.026;8.540;2023-01-15T02:00:07;6.20;;;1.58;;
49366;SDS011;35245;52.026;8.540;2023-01-15T02:02:38;5.75;;;1.55;;
49366;SDS011;35245;52.026;8.540;2023-01-15T02:05:09;9.85;;;1.90;;
49366;SDS011;35245;52.026;8.540;2023-01-15T02:07:41;6.22;;;2.05;;
49366;SDS011;35245;52.026;8.540;2023-01-15T02:10:12;7.38;;;2.13;;
49366;SDS011;35245;52.026;8.540;2023-01-15T02:12:40;4.68;;;1.50;;
49366;SDS011;35245;52.026;8.540;2023-01-15T02:15:12;8.25;;;1.90;;
49366;SDS011;35245;52.026;8.540;2023-01-15T02:17:48;9.18;;;2.33;;
49366;SDS011;35245;52.026;8.540;2023-01-15T02:20:23;7.93;;;1.70;;
49366;SDS011;35245;52.026;8.540;2023-01-15T02:23:12;9.38;;;1.90;;
49366;SDS011;35245;52.026;8.540;2023-01-15T02:26:37;7.53;;;2.00;;
49366;SDS011;35245;52.026;8.540;2023-01-15T02:32:30;7.57;;;1.90;;
49366;SDS011;35245;52.026;8.540;2023-01-15T02:35:05;5.15;;;1.50;;
49366;SDS011;35245;52.026;8.540;2023-01-15T02:37:38;4.95;;;2.03;;
49366;SDS011;35245;52.026;8.540;2023-01-15T02:40:13;6.78;;;1.88;;
49366;SDS011;35245;52.026;8.540;2023-01-15T02:42:43;6.47;;;1.73;;
49366;SDS011;35245;52.026;8.540;2023-01-15T02:45:12;8.45;;;2.95;;
49366;SDS011;35245;52.026;8.540;2023-01-15T02:47:48;12.43;;;3.40;;
49366;SDS011;35245;52.026;8.540;2023-01-15T02:50:18;6.70;;;2.78;;
49366;SDS011;35245;52.026;8.540;2023-01-15T02:52:52;8.88;;;3.13;;
49366;SDS011;35245;52.026;8.540;2023-01-15T02:55:25;11.18;;;3.90;;
49366;SDS011;35245;52.026;8.540;2023-01-15T02:58:00;6.60;;;3.38;;
49366;SDS011;35245;52.026;8.540;2023-01-15T03:00:32;9.05;;;3.45;;
49366;SDS011;35245;52.026;8.540;2023-01-15T03:03:05;6.43;;;3.50;;
49366;SDS011;35245;52.026;8.540;2023-01-15T03:05:38;13.73;;;3.85;;
49366;SDS011;35245;52.026;8.540;2023-01-15T03:08:11;8.63;;;4.07;;
49366;SDS011;35245;52.026;8.540;2023-01-15T03:10:42;8.52;;;3.72;;
49366;SDS011;35245;52.026;8.540;2023-01-15T03:13:18;12.68;;;3.50;;
49366;SDS011;35245;52.026;8.540;2023-01-15T03:15:55;6.70;;;3.05;;
49366;SDS011;35245;52.026;8.540;2023-01-15T03:18:45;5.00;;;2.40;;
49366;SDS011;35245;52.026;8.540;2023-01-15T03:21:20;5.43;;;2.80;;
49366;SDS011;35245;52.026;8.540;2023-01-15T03:23:54;7.50;;;3.22;;
49366;SDS011;35245;52.026;8.540;2023-01-15T03:26:25;5.85;;;2.33;;
49366;SDS011;35245;52.026;8.540;2023-01-15T03:28:54;6.50;;;2.95;;
49366;SDS011;35245;52.026;8.540;2023-01-15T03:31:22;3.28;;;2.25;;
49366;SDS011;35245;52.026;8.540;2023-01-15T03:33:49;6.82;;;2.03;;
49366;SDS011;35245;52.026;8.540;2023-01-15T03:36:16;4.93;;;2.15;;
49366;SDS011;35245;52.026;8.540;2023-01-15T03:38:43;4.25;;;2.03;;
49366;SDS011;35245;52.026;8.540;2023-01-15T03:41:16;5.50;;;1.87;;
49366;SDS011;35245;52.026;8.540;2023-01-15T03:43:51;5.85;;;2.08;;
49366;SDS011;35245;52.026;8.540;2023-01-15T03:46:34;2.45;;;1.55;;
49366;SDS011;35245;52.026;8.540;2023-01-15T03:49:22;3.08;;;1.52;;
49366;SDS011;35245;52.026;8.540;2023-01-15T03:52:00;3.15;;;1.30;;
49366;SDS011;35245;52.026;8.540;2023-01-15T03:54:36;4.13;;;1.55;;
49366;SDS011;35245;52.026;8.540;2023-01-15T03:57:12;3.53;;;1.20;;
49366;SDS011;35245;52.026;8.540;2023-01-15T03:59:50;4.78;;;2.03;;
49366;SDS011;35245;52.026;8.540;2023-01-15T04:02:21;3.08;;;1.63;;
49366;SDS011;35245;52.026;8.540;2023-01-15T04:04:50;5.60;;;2.10;;
49366;SDS011;35245;52.026;8.540;2023-01-15T04:07:19;3.33;;;1.50;;
49366;SDS011;35245;52.026;8.540;2023-01-15T04:09:47;3.42;;;1.48;;
49366;SDS011;35245;52.026;8.540;2023-01-15T04:12:15;5.28;;;1.38;;
49366;SDS011;35245;52.026;8.540;2023-01-15T04:14:42;6.97;;;1.77;;
49366;SDS011;35245;52.026;8.540;2023-01-15T04:17:11;8.50;;;1.50;;
49366;SDS011;35245;52.026;8.540;2023-01-15T04:19:38;5.30;;;1.70;;
49366;SDS011;35245;52.026;8.540;2023-01-15T04:22:07;6.05;;;1.58;;
49366;SDS011;35245;52.026;8.540;2023-01-15T04:24:35;4.45;;;1.55;;
49366;SDS011;35245;52.026;8.540;2023-01-15T04:27:03;6.28;;;1.40;;
49366;SDS011;35245;52.026;8.540;2023-01-15T04:29:31;2.65;;;1.02;;
49366;SDS011;35245;52.026;8.540;2023-01-15T04:31:58;7.68;;;1.73;;
49366;SDS011;35245;52.026;8.540;2023-01-15T04:34:27;7.20;;;1.30;;
49366;SDS011;35245;52.026;8.540;2023-01-15T04:36:55;9.98;;;1.90;;
49366;SDS011;35245;52.026;8.540;2023-01-15T04:39:22;4.32;;;1.23;;
49366;SDS011;35245;52.026;8.540;2023-01-15T04:41:50;7.13;;;1.42;;
49366;SDS011;35245;52.026;8.540;2023-01-15T04:44:35;12.02;;;1.58;;
49366;SDS011;35245;52.026;8.540;2023-01-15T04:47:03;5.70;;;1.27;;
49366;SDS011;35245;52.026;8.540;2023-01-15T04:49:32;7.97;;;1.88;;
49366;SDS011;35245;52.026;8.540;2023-01-15T04:52:00;8.10;;;1.50;;
49366;SDS011;35245;52.026;8.540;2023-01-15T04:54:28;7.03;;;1.85;;
49366;SDS011;35245;52.026;8.540;2023-01-15T04:56:55;4.78;;;1.00;;
49366;SDS011;35245;52.026;8.540;2023-01-15T04:59:23;9.80;;;1.83;;
49366;SDS011;35245;52.026;8.540;2023-01-15T05:01:52;6.75;;;1.63;;
49366;SDS011;35245;52.026;8.540;2023-01-15T05:04:19;4.72;;;1.50;;
49366;SDS011;35245;52.026;8.540;2023-01-15T05:06:48;9.90;;;1.40;;
49366;SDS011;35245;52.026;8.540;2023-01-15T05:09:17;6.75;;;1.88;;
49366;SDS011;35245;52.026;8.540;2023-01-15T05:11:44;7.35;;;1.30;;
49366;SDS011;35245;52.026;8.540;2023-01-15T05:14:12;8.18;;;1.88;;
49366;SDS011;35245;52.026;8.540;2023-01-15T05:16:39;5.82;;;1.27;;
49366;SDS011;35245;52.026;8.540;2023-01-15T05:19:06;7.38;;;1.60;;
49366;SDS011;35245;52.026;8.540;2023-01-15T05:21:36;9.77;;;2.40;;
49366;SDS011;35245;52.026;8.540;2023-01-15T05:24:09;8.30;;;1.80;;
49366;SDS011;35245;52.026;8.540;2023-01-15T05:26:40;9.13;;;1.45;;
49366;SDS011;35245;52.026;8.540;2023-01-15T05:29:09;7.47;;;1.40;;
49366;SDS011;35245;52.026;8.540;2023-01-15T05:31:37;12.35;;;2.03;;
49366;SDS011;35245;52.026;8.540;2023-01-15T05:34:05;4.97;;;1.40;;
49366;SDS011;35245;52.026;8.540;2023-01-15T05:36:33;4.50;;;1.48;;
49366;SDS011;35245;52.026;8.540;2023-01-15T05:39:01;10.40;;;1.73;;
49366;SDS011;35245;52.026;8.540;2023-01-15T05:41:30;10.18;;;1.50;;
49366;SDS011;35245;52.026;8.540;2023-01-15T05:44:18;4.97;;;1.08;;
49366;SDS011;35245;52.026;8.540;2023-01-15T05:46:48;7.13;;;1.52;;
49366;SDS011;35245;52.026;8.540;2023-01-15T05:49:19;7.93;;;1.83;;
49366;SDS011;35245;52.026;8.540;2023-01-15T05:51:48;14.38;;;2.25;;
49366;SDS011;35245;52.026;8.540;2023-01-15T05:54:17;5.90;;;1.58;;
49366;SDS011;35245;52.026;8.540;2023-01-15T05:56:48;5.38;;;1.08;;
49366;SDS011;35245;52.026;8.540;2023-01-15T05:59:16;11.35;;;1.80;;
49366;SDS011;35245;52.026;8.540;2023-01-15T06:01:46;4.90;;;1.42;;
49366;SDS011;35245;52.026;8.540;2023-01-15T06:04:14;7.18;;;1.25;;
49366;SDS011;35245;52.026;8.540;2023-01-15T06:06:45;7.30;;;1.20;;
49366;SDS011;35245;52.026;8.540;2023-01-15T06:09:13;7.90;;;1.20;;
49366;SDS011;35245;52.026;8.540;2023-01-15T06:11:40;7.00;;;1.70;;
49366;SDS011;35245;52.026;8.540;2023-01-15T06:14:10;9.57;;;1.80;;
49366;SDS011;35245;52.026;8.540;2023-01-15T06:16:37;5.55;;;1.15;;
49366;SDS011;35245;52.026;8.540;2023-01-15T06:19:05;5.90;;;1.40;;
49366;SDS011;35245;52.026;8.540;2023-01-15T06:21:34;6.18;;;1.70;;
49366;SDS011;35245;52.026;8.540;2023-01-15T06:24:01;5.47;;;1.52;;
49366;SDS011;35245;52.026;8.540;2023-01-15T06:26:29;8.68;;;1.75;;
49366;SDS011;35245;52.026;8.540;2023-01-15T06:28:57;6.90;;;1.50;;
49366;SDS011;35245;52.026;8.540;2023-01-15T06:31:26;8.40;;;1.52;;
49366;SDS011;35245;52.026;8.540;2023-01-15T06:33:53;6.45;;;1.40;;
49366;SDS011;35245;52.026;8.540;2023-01-15T06:36:22;8.23;;;1.30;;
49366;SDS011;35245;52.026;8.540;2023-01-15T06:38:51;6.32;;;1.48;;
49366;SDS011;35245;52.026;8.540;2023-01-15T06:41:19;8.07;;;1.88;;
49366;SDS011;35245;52.026;8.540;2023-01-15T06:44:08;7.18;;;1.73;;
49366;SDS011;35245;52.026;8.540;2023-01-15T06:46:57;6.72;;;1.20;;
49366;SDS011;35245;52.026;8.540;2023-01-15T06:49:46;10.98;;;1.98;;
49366;SDS011;35245;52.026;8.540;2023-01-15T06:52:14;7.55;;;1.70;;
49366;SDS011;35245;52.026;8.540;2023-01-15T06:54:41;8.77;;;2.20;;
49366;SDS011;35245;52.026;8.540;2023-01-15T06:57:08;6.15;;;1.63;;
49366;SDS011;35245;52.026;8.540;2023-01-15T06:59:36;12.05;;;1.88;;
49366;SDS011;35245;52.026;8.540;2023-01-15T07:02:04;4.88;;;1.63;;
49366;SDS011;35245;52.026;8.540;2023-01-15T07:04:31;6.72;;;1.88;;
49366;SDS011;35245;52.026;8.540;2023-01-15T07:06:59;8.57;;;1.33;;
49366;SDS011;35245;52.026;8.540;2023-01-15T07:09:26;8.48;;;1.55;;
49366;SDS011;35245;52.026;8.540;2023-01-15T07:11:53;6.20;;;1.65;;
49366;SDS011;35245;52.026;8.540;2023-01-15T07:14:21;5.57;;;1.38;;
49366;SDS011;35245;52.026;8.540;2023-01-15T07:16:50;8.85;;;1.50;;
49366;SDS011;35245;52.026;8.540;2023-01-15T07:19:19;7.25;;;1.38;;
49366;SDS011;35245;52.026;8.540;2023-01-15T07:21:46;8.85;;;1.60;;
49366;SDS011;35245;52.026;8.540;2023-01-15T07:24:14;13.93;;;1.70;;
49366;SDS011;35245;52.026;8.540;2023-01-15T07:26:42;9.95;;;2.33;;
49366;SDS011;35245;52.026;8.540;2023-01-15T07:29:10;10.63;;;1.70;;
49366;SDS011;35245;52.026;8.540;2023-01-15T07:31:38;8.60;;;1.63;;
49366;SDS011;35245;52.026;8.540;2023-01-15T07:34:06;9.35;;;1.50;;
49366;SDS011;35245;52.026;8.540;2023-01-15T07:36:35;7.70;;;1.95;;
49366;SDS011;35245;52.026;8.540;2023-01-15T07:39:03;9.02;;;2.28;;
49366;SDS011;35245;52.026;8.540;2023-01-15T07:41:30;8.88;;;2.20;;
49366;SDS011;35245;52.026;8.540;2023-01-15T07:44:17;7.97;;;2.10;;
49366;SDS011;35245;52.026;8.540;2023-01-15T07:47:01;9.60;;;2.38;;
49366;SDS011;35245;52.026;8.540;2023-01-15T07:49:52;7.07;;;1.70;;
49366;SDS011;35245;52.026;8.540;2023-01-15T07:52:21;8.70;;;2.30;;
49366;SDS011;35245;52.026;8.540;2023-01-15T07:54:49;9.38;;;1.52;;
49366;SDS011;35245;52.026;8.540;2023-01-15T07:57:17;7.15;;;1.65;;
49366;SDS011;35245;52.026;8.540;2023-01-15T07:59:46;13.07;;;2.17;;
49366;SDS011;35245;52.026;8.540;2023-01-15T08:02:15;8.00;;;1.77;;
49366;SDS011;35245;52.026;8.540;2023-01-15T08:04:42;8.50;;;2.30;;
49366;SDS011;35245;52.026;8.540;2023-01-15T08:07:11;12.55;;;2.58;;
49366;SDS011;35245;52.026;8.540;2023-01-15T08:09:41;10.38;;;2.17;;
49366;SDS011;35245;52.026;8.540;2023-01-15T08:12:08;11.13;;;2.00;;
49366;SDS011;35245;52.026;8.540;2023-01-15T08:14:54;6.82;;;1.50;;
49366;SDS011;35245;52.026;8.540;2023-01-15T08:17:39;6.65;;;1.58;;
49366;SDS011;35245;52.026;8.540;2023-01-15T08:20:09;9.95;;;2.10;;
49366;SDS011;35245;52.026;8.540;2023-01-15T08:22:39;11.18;;;1.77;;
49366;SDS011;35245;52.026;8.540;2023-01-15T08:25:08;12.88;;;2.72;;
49366;SDS011;35245;52.026;8.540;2023-01-15T08:30:06;8.82;;;1.75;;
49366;SDS011;35245;52.026;8.540;2023-01-15T08:32:36;6.80;;;1.47;;
49366;SDS011;35245;52.026;8.540;2023-01-15T08:35:04;9.18;;;2.13;;
49366;SDS011;35245;52.026;8.540;2023-01-15T08:37:33;8.57;;;1.60;;
49366;SDS011;35245;52.026;8.540;2023-01-15T08:40:00;7.55;;;2.00;;
49366;SDS011;35245;52.026;8.540;2023-01-15T08:42:30;11.30;;;2.65;;
49366;SDS011;35245;52.026;8.540;2023-01-15T08:44:57;8.52;;;1.80;;
49366;SDS011;35245;52.026;8.540;2023-01-15T08:47:24;8.48;;;2.63;;
49366;SDS011;35245;52.026;8.540;2023-01-15T08:49:51;10.40;;;2.15;;
49366;SDS011;35245;52.026;8.540;2023-01-15T08:52:19;6.10;;;2.35;;
49366;SDS011;35245;52.026;8.540;2023-01-15T08:54:46;8.80;;;1.98;;
49366;SDS011;35245;52.026;8.540;2023-01-15T08:57:13;13.63;;;4.88;;
49366;SDS011;35245;52.026;8.540;2023-01-15T08:59:42;15.30;;;4.43;;
49366;SDS011;35245;52.026;8.540;2023-01-15T09:02:10;10.13;;;3.60;;
49366;SDS011;35245;52.026;8.540;2023-01-15T09:04:39;14.90;;;5.32;;
49366;SDS011;35245;52.026;8.540;2023-01-15T09:07:06;16.25;;;3.42;;
49366;SDS011;35245;52.026;8.540;2023-01-15T09:09:33;16.92;;;6.50;;
49366;SDS011;35245;52.026;8.540;2023-01-15T09:12:00;15.82;;;6.72;;
49366;SDS011;35245;52.026;8.540;2023-01-15T09:14:28;21.98;;;7.57;;
49366;SDS011;35245;52.026;8.540;2023-01-15T09:16:57;13.10;;;4.85;;
49366;SDS011;35245;52.026;8.540;2023-01-15T09:19:24;10.63;;;3.42;;
49366;SDS011;35245;52.026;8.540;2023-01-15T09:21:51;5.65;;;2.05;;
49366;SDS011;35245;52.026;8.540;2023-01-15T09:24:19;10.70;;;4.60;;
49366;SDS011;35245;52.026;8.540;2023-01-15T09:26:46;14.70;;;5.63;;
49366;SDS011;35245;52.026;8.540;2023-01-15T09:29:17;13.10;;;7.82;;
49366;SDS011;35245;52.026;8.540;2023-01-15T09:31:44;6.57;;;2.13;;
49366;SDS011;35245;52.026;8.540;2023-01-15T09:34:12;12.80;;;5.82;;
49366;SDS011;35245;52.026;8.540;2023-01-15T09:36:40;7.60;;;2.40;;
49366;SDS011;35245;52.026;8.540;2023-01-15T09:39:08;7.47;;;2.38;;
49366;SDS011;35245;52.026;8.540;2023-01-15T09:41:44;18.48;;;6.80;;
49366;SDS011;35245;52.026;8.540;2023-01-15T09:44:38;25.10;;;9.15;;
49366;SDS011;35245;52.026;8.540;2023-01-15T09:47:25;12.32;;;3.88;;
49366;SDS011;35245;52.026;8.540;2023-01-15T09:50:02;20.92;;;8.52;;
49366;SDS011;35245;52.026;8.540;2023-01-15T09:52:52;18.33;;;7.07;;
49366;SDS011;35245;52.026;8.540;2023-01-15T09:55:48;11.38;;;3.33;;
49366;SDS011;35245;52.026;8.540;2023-01-15T09:58:18;10.07;;;2.70;;
49366;SDS011;35245;52.026;8.540;2023-01-15T10:00:52;16.25;;;7.60;;
49366;SDS011;35245;52.026;8.540;2023-01-15T10:03:22;14.50;;;6.72;;
49366;SDS011;35245;52.026;8.540;2023-01-15T10:06:02;15.20;;;4.65;;
49366;SDS011;35245;52.026;8.540;2023-01-15T10:08:40;8.00;;;2.28;;
49366;SDS011;35245;52.026;8.540;2023-01-15T10:14:32;13.50;;;3.10;;
49366;SDS011;35245;52.026;8.540;2023-01-15T10:17:11;3.92;;;1.55;;
49366;SDS011;35245;52.026;8.540;2023-01-15T10:19:50;6.07;;;1.92;;
49366;SDS011;35245;52.026;8.540;2023-01-15T10:22:26;7.38;;;2.75;;
49366;SDS011;35245;52.026;8.540;2023-01-15T10:25:12;6.63;;;1.85;;
49366;SDS011;35245;52.026;8.540;2023-01-15T10:27:44;7.80;;;2.42;;
49366;SDS011;35245;52.026;8.540;2023-01-15T10:30:16;5.07;;;1.58;;
49366;SDS011;35245;52.026;8.540;2023-01-15T10:32:54;6.60;;;1.63;;
49366;SDS011;35245;52.026;8.540;2023-01-15T10:35:26;7.35;;;1.58;;
49366;SDS011;35245;52.026;8.540;2023-01-15T10:38:09;5.35;;;1.08;;
49366;SDS011;35245;52.026;8.540;2023-01-15T10:40:50;7.35;;;1.30;;
49366;SDS011;35245;52.026;8.540;2023-01-15T10:43:42;6.72;;;1.48;;
49366;SDS011;35245;52.026;8.540;2023-01-15T10:46:16;11.02;;;1.60;;
49366;SDS011;35245;52.026;8.540;2023-01-15T10:48:49;4.78;;;1.33;;
49366;SDS011;35245;52.026;8.540;2023-01-15T10:51:23;8.85;;;1.40;;
49366;SDS011;35245;52.026;8.540;2023-01-15T10:53:57;9.93;;;1.42;;
49366;SDS011;35245;52.026;8.540;2023-01-15T10:56:32;7.00;;;1.70;;
49366;SDS011;35245;52.026;8.540;2023-01-15T10:59:10;3.75;;;0.85;;
49366;SDS011;35245;52.026;8.540;2023-01-15T11:01:41;7.40;;;1.35;;
49366;SDS011;35245;52.026;8.540;2023-01-15T11:04:09;7.10;;;1.80;;
49366;SDS011;35245;52.026;8.540;2023-01-15T11:06:38;7.18;;;1.50;;
49366;SDS011;35245;52.026;8.540;2023-01-15T11:09:08;6.85;;;1.42;;
49366;SDS011;35245;52.026;8.540;2023-01-15T11:11:44;4.55;;;1.17;;
49366;SDS011;35245;52.026;8.540;2023-01-15T11:14:32;7.50;;;1.90;;
49366;SDS011;35245;52.026;8.540;2023-01-15T11:17:19;6.57;;;1.42;;
49366;SDS011;35245;52.026;8.540;2023-01-15T11:20:10;6.97;;;1.60;;
49366;SDS011;35245;52.026;8.540;2023-01-15T11:25:24;4.97;;;1.00;;
49366;SDS011;35245;52.026;8.540;2023-01-15T11:27:56;9.20;;;2.58;;
49366;SDS011;35245;52.026;8.540;2023-01-15T11:30:26;4.90;;;1.10;;
49366;SDS011;35245;52.026;8.540;2023-01-15T11:32:58;6.72;;;1.67;;
49366;SDS011;35245;52.026;8.540;2023-01-15T11:35:28;7.53;;;1.40;;
49366;SDS011;35245;52.026;8.540;2023-01-15T11:38:00;4.55;;;0.93;;
49366;SDS011;35245;52.026;8.540;2023-01-15T11:40:31;8.30;;;1.52;;
49366;SDS011;35245;52.026;8.540;2023-01-15T11:42:59;8.32;;;1.50;;
49366;SDS011;35245;52.026;8.540;2023-01-15T11:45:47;2.47;;;0.80;;
49366;SDS011;35245;52.026;8.540;2023-01-15T11:48:34;5.25;;;1.55;;
49366;SDS011;35245;52.026;8.540;2023-01-15T11:51:27;6.50;;;1.70;;
49366;SDS011;35245;52.026;8.540;2023-01-15T11:53:59;6.40;;;1.48;;
49366;SDS011;35245;52.026;8.540;2023-01-15T11:56:30;9.27;;;1.55;;
49366;SDS011;35245;52.026;8.540;2023-01-15T11:59:01;14.98;;;1.95;;
49366;SDS011;35245;52.026;8.540;2023-01-15T12:01:36;7.85;;;2.00;;
49366;SDS011;35245;52.026;8.540;2023-01-15T12:04:22;8.23;;;2.67;;
49366;SDS011;35245;52.026;8.540;2023-01-15T12:06:59;11.75;;;1.98;;
49366;SDS011;35245;52.026;8.540;2023-01-15T12:09:35;10.52;;;2.85;;
49366;SDS011;35245;52.026;8.540;2023-01-15T12:12:30;14.23;;;3.42;;
49366;SDS011;35245;52.026;8.540;2023-01-15T12:15:11;15.90;;;4.95;;
49366;SDS011;35245;52.026;8.540;2023-01-15T12:18:01;8.55;;;1.65;;
49366;SDS011;35245;52.026;8.540;2023-01-15T12:20:53;12.82;;;3.53;;
49366;SDS011;35245;52.026;8.540;2023-01-15T12:23:41;13.43;;;3.85;;
49366;SDS011;35245;52.026;8.540;2023-01-15T12:26:32;7.43;;;1.73;;
49366;SDS011;35245;52.026;8.540;2023-01-15T12:29:08;14.00;;;5.30;;
49366;SDS011;35245;52.026;8.540;2023-01-15T12:31:45;11.05;;;3.10;;
49366;SDS011;35245;52.026;8.540;2023-01-15T12:34:19;10.10;;;1.92;;
49366;SDS011;35245;52.026;8.540;2023-01-15T12:36:50;11.25;;;3.95;;
49366;SDS011;35245;52.026;8.540;2023-01-15T12:41:52;10.45;;;2.00;;
49366;SDS011;35245;52.026;8.540;2023-01-15T12:44:45;11.57;;;2.97;;
49366;SDS011;35245;52.026;8.540;2023-01-15T12:47:31;11.88;;;3.97;;
49366;SDS011;35245;52.026;8.540;2023-01-15T12:50:11;9.85;;;2.85;;
49366;SDS011;35245;52.026;8.540;2023-01-15T12:52:53;9.27;;;2.58;;
49366;SDS011;35245;52.026;8.540;2023-01-15T12:55:30;15.85;;;4.45;;
49366;SDS011;35245;52.026;8.540;2023-01-15T12:58:02;10.00;;;2.78;;
49366;SDS011;35245;52.026;8.540;2023-01-15T13:00:40;10.13;;;2.45;;
49366;SDS011;35245;52.026;8.540;2023-01-15T13:03:14;8.93;;;2.00;;
49366;SDS011;35245;52.026;8.540;2023-01-15T13:05:50;12.15;;;3.80;;
49366;SDS011;35245;52.026;8.540;2023-01-15T13:08:23;8.38;;;2.08;;
49366;SDS011;35245;52.026;8.540;2023-01-15T13:10:55;11.38;;;2.63;;
49366;SDS011;35245;52.026;8.540;2023-01-15T13:13:23;11.13;;;2.35;;
49366;SDS011;35245;52.026;8.540;2023-01-15T13:15:59;12.68;;;3.63;;
49366;SDS011;35245;52.026;8.540;2023-01-15T13:18:53;14.95;;;3.38;;
49366;SDS011;35245;52.026;8.540;2023-01-15T13:21:39;7.70;;;2.30;;
49366;SDS011;35245;52.026;8.540;2023-01-15T13:24:15;8.15;;;2.38;;
49366;SDS011;35245;52.026;8.540;2023-01-15T13:27:15;8.48;;;2.15;;
49366;SDS011;35245;52.026;8.540;2023-01-15T13:30:04;8.20;;;2.85;;
49366;SDS011;35245;52.026;8.540;2023-01-15T13:32:54;10.07;;;2.80;;
49366;SDS011;35245;52.026;8.540;2023-01-15T13:35:30;9.30;;;2.53;;
49366;SDS011;35245;52.026;8.540;2023-01-15T13:38:02;11.98;;;3.38;;
49366;SDS011;35245;52.026;8.540;2023-01-15T13:40:32;9.48;;;3.47;;
49366;SDS011;35245;52.026;8.540;2023-01-15T13:43:05;11.00;;;2.85;;
49366;SDS011;35245;52.026;8.540;2023-01-15T13:45:35;9.63;;;2.67;;
49366;SDS011;35245;52.026;8.540;2023-01-15T13:48:06;7.10;;;1.70;;
49366;SDS011;35245;52.026;8.540;2023-01-15T13:50:41;5.93;;;1.67;;
49366;SDS011;35245;52.026;8.540;2023-01-15T13:53:21;11.02;;;1.52;;
49366;SDS011;35245;52.026;8.540;2023-01-15T13:55:54;8.38;;;1.65;;
49366;SDS011;35245;52.026;8.540;2023-01-15T13:58:27;7.47;;;2.22;;
49366;SDS011;35245;52.026;8.540;2023-01-15T14:01:00;6.13;;;1.58;;
49366;SDS011;35245;52.026;8.540;2023-01-15T14:03:35;6.25;;;1.90;;
49366;SDS011;35245;52.026;8.540;2023-01-15T14:06:04;7.32;;;1.52;;
49366;SDS011;35245;52.026;8.540;2023-01-15T14:08:38;11.43;;;2.60;;
49366;SDS011;35245;52.026;8.540;2023-01-15T14:11:30;5.35;;;1.60;;
49366;SDS011;35245;52.026;8.540;2023-01-15T14:14:13;12.50;;;4.07;;
49366;SDS011;35245;52.026;8.540;2023-01-15T14:17:30;9.93;;;2.50;;
49366;SDS011;35245;52.026;8.540;2023-01-15T14:20:40;7.78;;;3.30;;
49366;SDS011;35245;52.026;8.540;2023-01-15T14:23:30;8.32;;;2.97;;
49366;SDS011;35245;52.026;8.540;2023-01-15T14:26:19;5.43;;;1.83;;
49366;SDS011;35245;52.026;8.540;2023-01-15T14:28:58;10.30;;;3.65;;
49366;SDS011;35245;52.026;8.540;2023-01-15T14:31:45;6.30;;;1.88;;
49366;SDS011;35245;52.026;8.540;2023-01-15T14:34:24;13.68;;;5.57;;
49366;SDS011;35245;52.026;8.540;2023-01-15T14:36:56;7.38;;;2.25;;
49366;SDS011;35245;52.026;8.540;2023-01-15T14:39:29;8.30;;;3.20;;
49366;SDS011;35245;52.026;8.540;2023-01-15T14:42:06;10.23;;;2.33;;
49366;SDS011;35245;52.026;8.540;2023-01-15T14:44:59;5.32;;;1.83;;
49366;SDS011;35245;52.026;8.540;2023-01-15T14:47:34;13.82;;;3.97;;
49366;SDS011;35245;52.026;8.540;2023-01-15T14:50:24;5.63;;;1.83;;
49366;SDS011;35245;52.026;8.540;2023-01-15T14:53:01;4.68;;;1.60;;
49366;SDS011;35245;52.026;8.540;2023-01-15T14:55:42;5.78;;;2.58;;
49366;SDS011;35245;52.026;8.540;2023-01-15T14:58:16;6.53;;;1.40;;
49366;SDS011;35245;52.026;8.540;2023-01-15T15:01:03;5.15;;;1.70;;
49366;SDS011;35245;52.026;8.540;2023-01-15T15:03:44;7.03;;;1.40;;
49366;SDS011;35245;52.026;8.540;2023-01-15T15:06:19;5.00;;;1.60;;
49366;SDS011;35245;52.026;8.540;2023-01-15T15:08:48;2.85;;;0.93;;
49366;SDS011;35245;52.026;8.540;2023-01-15T15:11:20;3.58;;;0.98;;
49366;SDS011;35245;52.026;8.540;2023-01-15T15:14:16;3.78;;;1.02;;
49366;SDS011;35245;52.026;8.540;2023-01-15T15:16:46;3.30;;;0.80;;
49366;SDS011;35245;52.026;8.540;2023-01-15T15:19:17;4.30;;;1.38;;
49366;SDS011;35245;52.026;8.540;2023-01-15T15:21:53;6.00;;;1.25;;
49366;SDS011;35245;52.026;8.540;2023-01-15T15:24:26;5.38;;;1.50;;
49366;SDS011;35245;52.026;8.540;2023-01-15T15:27:07;5.63;;;1.83;;
49366;SDS011;35245;52.026;8.540;2023-01-15T15:29:39;11.95;;;4.15;;
49366;SDS011;35245;52.026;8.540;2023-01-15T15:32:07;13.43;;;4.35;;
49366;SDS011;35245;52.026;8.540;2023-01-15T15:34:42;7.15;;;1.40;;
49366;SDS011;35245;52.026;8.540;2023-01-15T15:37:15;11.27;;;3.83;;